CYSA weather

Stratford Municipal Airport
Stratford, Ontario, Canada

Public forecast

Using degrees Celsius for public forecast. Weather courtesy of forecast.io.

METAR (pilot weather report)

Closest report is Waterloo Airport, 24.4 nm (45.2 km) E. Retrieved 2019/03/25 20:00 UTC (30 minutes ago):

CYKF 252000Z AUTO 35008KT 320V040 9SM CLR 03/M14 A3016 RMK SLP227

TAF (pilot weather forecast)

Closest forecast is Waterloo Airport, 24.4 nm (45.2 km) E. Retrieved 2019/03/25 20:42 UTC (0 seconds ago):

TAF CYKF 251939Z 2520/2608 35010G20KT P6SM SKC BECMG 2523/2601 36006KT RMK FCST BASED ON AUTO OBS. NXT FCST BY 260200Z